sensor_id;sensor_type;location;lat;lon;timestamp;temperature;humidity
21815;DHT22;11069;48.988;8.450;2023-04-06T00:01:01;0.90;99.90
21815;DHT22;11069;48.988;8.450;2023-04-06T00:03:27;0.90;99.90
21815;DHT22;11069;48.988;8.450;2023-04-06T00:05:52;0.80;99.90
21815;DHT22;11069;48.988;8.450;2023-04-06T00:08:18;0.70;99.90
21815;DHT22;11069;48.988;8.450;2023-04-06T00:10:44;0.60;99.90
21815;DHT22;11069;48.988;8.450;2023-04-06T00:13:10;0.50;99.90
21815;DHT22;11069;48.988;8.450;2023-04-06T00:15:35;0.40;99.90
21815;DHT22;11069;48.988;8.450;2023-04-06T00:18:02;0.40;99.90
21815;DHT22;11069;48.988;8.450;2023-04-06T00:20:28;0.40;99.90
21815;DHT22;11069;48.988;8.450;2023-04-06T00:22:54;0.40;99.90
21815;DHT22;11069;48.988;8.450;2023-04-06T00:25:20;0.30;99.90
21815;DHT22;11069;48.988;8.450;2023-04-06T00:27:45;0.20;99.90
21815;DHT22;11069;48.988;8.450;2023-04-06T00:30:11;0.30;99.90
21815;DHT22;11069;48.988;8.450;2023-04-06T00:32:37;0.30;99.90
21815;DHT22;11069;48.988;8.450;2023-04-06T00:35:03;0.20;99.90
21815;DHT22;11069;48.988;8.450;2023-04-06T00:37:29;0.20;99.90
21815;DHT22;11069;48.988;8.450;2023-04-06T00:39:55;0.20;99.90
21815;DHT22;11069;48.988;8.450;2023-04-06T00:42:21;0.20;99.90
21815;DHT22;11069;48.988;8.450;2023-04-06T00:44:54;0.20;99.90
21815;DHT22;11069;48.988;8.450;2023-04-06T00:47:22;0.40;99.90
21815;DHT22;11069;48.988;8.450;2023-04-06T00:49:48;0.30;99.90
21815;DHT22;11069;48.988;8.450;2023-04-06T00:52:14;0.20;99.90
21815;DHT22;11069;48.988;8.450;2023-04-06T00:54:40;0.20;99.90
21815;DHT22;11069;48.988;8.450;2023-04-06T00:57:06;0.20;99.90
21815;DHT22;11069;48.988;8.450;2023-04-06T00:59:32;0.20;99.90
21815;DHT22;11069;48.988;8.450;2023-04-06T01:01:58;0.10;99.90
21815;DHT22;11069;48.988;8.450;2023-04-06T01:04:24;0.10;99.90
21815;DHT22;11069;48.988;8.450;2023-04-06T01:06:50;0.00;99.90
21815;DHT22;11069;48.988;8.450;2023-04-06T01:09:16;0.10;99.90
21815;DHT22;11069;48.988;8.450;2023-04-06T01:11:42;0.00;99.90
21815;DHT22;11069;48.988;8.450;2023-04-06T01:14:09;0.00;99.90
21815;DHT22;11069;48.988;8.450;2023-04-06T01:16:35;-0.10;99.90
21815;DHT22;11069;48.988;8.450;2023-04-06T01:19:01;-0.10;99.90
21815;DHT22;11069;48.988;8.450;2023-04-06T01:21:26;-0.10;99.90
21815;DHT22;11069;48.988;8.450;2023-04-06T01:23:52;-0.10;99.90
21815;DHT22;11069;48.988;8.450;2023-04-06T01:26:18;-0.10;99.90
21815;DHT22;11069;48.988;8.450;2023-04-06T01:28:43;-0.20;99.90
21815;DHT22;11069;48.988;8.450;2023-04-06T01:31:10;-0.20;99.90
21815;DHT22;11069;48.988;8.450;2023-04-06T01:33:36;-0.30;99.90
21815;DHT22;11069;48.988;8.450;2023-04-06T01:36:02;-0.30;99.90
21815;DHT22;11069;48.988;8.450;2023-04-06T01:38:28;-0.30;99.90
21815;DHT22;11069;48.988;8.450;2023-04-06T01:40:54;-0.40;99.90
21815;DHT22;11069;48.988;8.450;2023-04-06T01:43:20;-0.40;99.90
21815;DHT22;11069;48.988;8.450;2023-04-06T01:45:46;-0.40;99.90
21815;DHT22;11069;48.988;8.450;2023-04-06T01:48:11;-0.50;99.90
21815;DHT22;11069;48.988;8.450;2023-04-06T01:50:37;-0.50;99.90
21815;DHT22;11069;48.988;8.450;2023-04-06T01:53:02;-0.50;99.90
21815;DHT22;11069;48.988;8.450;2023-04-06T01:55:28;-0.50;99.90
21815;DHT22;11069;48.988;8.450;2023-04-06T01:57:54;-0.60;99.90
21815;DHT22;11069;48.988;8.450;2023-04-06T02:00:19;-0.60;99.90
21815;DHT22;11069;48.988;8.450;2023-04-06T02:02:45;-0.60;99.90
21815;DHT22;11069;48.988;8.450;2023-04-06T02:05:11;-0.50;99.90
21815;DHT22;11069;48.988;8.450;2023-04-06T02:07:36;-0.50;99.90
21815;DHT22;11069;48.988;8.450;2023-04-06T02:10:03;-0.60;99.90
21815;DHT22;11069;48.988;8.450;2023-04-06T02:12:29;-0.60;99.90
21815;DHT22;11069;48.988;8.450;2023-04-06T02:14:54;-0.50;99.90
21815;DHT22;11069;48.988;8.450;2023-04-06T02:17:20;-0.40;99.90
21815;DHT22;11069;48.988;8.450;2023-04-06T02:19:45;-0.50;99.90
21815;DHT22;11069;48.988;8.450;2023-04-06T02:22:11;-0.60;99.90
21815;DHT22;11069;48.988;8.450;2023-04-06T02:24:37;-0.60;99.90
21815;DHT22;11069;48.988;8.450;2023-04-06T02:27:02;-0.60;99.90
21815;DHT22;11069;48.988;8.450;2023-04-06T02:29:28;-0.70;99.90
21815;DHT22;11069;48.988;8.450;2023-04-06T02:31:54;-0.80;99.90
21815;DHT22;11069;48.988;8.450;2023-04-06T02:34:20;-0.80;99.90
21815;DHT22;11069;48.988;8.450;2023-04-06T02:36:46;-0.80;99.90
21815;DHT22;11069;48.988;8.450;2023-04-06T02:39:15;-0.70;99.90
21815;DHT22;11069;48.988;8.450;2023-04-06T02:41:41;-0.60;99.90
21815;DHT22;11069;48.988;8.450;2023-04-06T02:44:08;-0.70;99.90
21815;DHT22;11069;48.988;8.450;2023-04-06T02:46:34;-0.80;99.90
21815;DHT22;11069;48.988;8.450;2023-04-06T02:49:00;-0.80;99.90
21815;DHT22;11069;48.988;8.450;2023-04-06T02:51:26;-0.80;99.90
21815;DHT22;11069;48.988;8.450;2023-04-06T02:53:52;-0.70;99.90
21815;DHT22;11069;48.988;8.450;2023-04-06T02:56:18;-0.80;99.90
21815;DHT22;11069;48.988;8.450;2023-04-06T02:58:44;-0.70;99.90
21815;DHT22;11069;48.988;8.450;2023-04-06T03:01:10;-0.70;99.90
21815;DHT22;11069;48.988;8.450;2023-04-06T03:03:35;-0.70;99.90
21815;DHT22;11069;48.988;8.450;2023-04-06T03:06:01;-0.80;99.90
21815;DHT22;11069;48.988;8.450;2023-04-06T03:08:27;-0.80;99.90
21815;DHT22;11069;48.988;8.450;2023-04-06T03:10:52;-0.80;99.90
21815;DHT22;11069;48.988;8.450;2023-04-06T03:13:18;-0.80;99.90
21815;DHT22;11069;48.988;8.450;2023-04-06T03:15:43;-0.80;99.90
21815;DHT22;11069;48.988;8.450;2023-04-06T03:18:09;-0.80;99.90
21815;DHT22;11069;48.988;8.450;2023-04-06T03:20:34;-0.80;99.90
21815;DHT22;11069;48.988;8.450;2023-04-06T03:23:00;-0.90;99.90
21815;DHT22;11069;48.988;8.450;2023-04-06T03:25:26;-1.00;99.90
21815;DHT22;11069;48.988;8.450;2023-04-06T03:27:51;-1.10;99.90
21815;DHT22;11069;48.988;8.450;2023-04-06T03:30:17;-1.00;99.90
21815;DHT22;11069;48.988;8.450;2023-04-06T03:32:44;-1.00;99.90
21815;DHT22;11069;48.988;8.450;2023-04-06T03:35:09;-1.00;99.90
21815;DHT22;11069;48.988;8.450;2023-04-06T03:37:35;-1.10;99.90
21815;DHT22;11069;48.988;8.450;2023-04-06T03:40:01;-1.10;99.90
21815;DHT22;11069;48.988;8.450;2023-04-06T03:42:27;-1.10;99.90
21815;DHT22;11069;48.988;8.450;2023-04-06T03:44:53;-1.00;99.90
21815;DHT22;11069;48.988;8.450;2023-04-06T03:47:18;-1.00;99.90
21815;DHT22;11069;48.988;8.450;2023-04-06T03:49:44;-1.10;99.90
21815;DHT22;11069;48.988;8.450;2023-04-06T03:52:09;-1.20;99.90
21815;DHT22;11069;48.988;8.450;2023-04-06T03:54:35;-1.10;99.90
21815;DHT22;11069;48.988;8.450;2023-04-06T03:57:01;-1.20;99.90
21815;DHT22;11069;48.988;8.450;2023-04-06T03:59:27;-1.20;99.90
21815;DHT22;11069;48.988;8.450;2023-04-06T04:01:53;-1.30;99.90
21815;DHT22;11069;48.988;8.450;2023-04-06T04:04:18;-1.40;99.90
21815;DHT22;11069;48.988;8.450;2023-04-06T04:06:44;-1.40;99.90
21815;DHT22;11069;48.988;8.450;2023-04-06T04:09:10;-1.40;99.90
21815;DHT22;11069;48.988;8.450;2023-04-06T04:11:35;-1.40;99.90
21815;DHT22;11069;48.988;8.450;2023-04-06T04:14:01;-1.50;99.90
21815;DHT22;11069;48.988;8.450;2023-04-06T04:16:27;-1.40;99.90
21815;DHT22;11069;48.988;8.450;2023-04-06T04:18:52;-1.40;99.90
21815;DHT22;11069;48.988;8.450;2023-04-06T04:21:18;-1.50;99.90
21815;DHT22;11069;48.988;8.450;2023-04-06T04:23:44;-1.40;99.90
21815;DHT22;11069;48.988;8.450;2023-04-06T04:26:12;-1.40;99.90
21815;DHT22;11069;48.988;8.450;2023-04-06T04:28:37;-1.40;99.90
21815;DHT22;11069;48.988;8.450;2023-04-06T04:31:03;-1.30;99.90
21815;DHT22;11069;48.988;8.450;2023-04-06T04:33:29;-1.40;99.90
21815;DHT22;11069;48.988;8.450;2023-04-06T04:35:54;-1.30;99.90
21815;DHT22;11069;48.988;8.450;2023-04-06T04:38:20;-1.30;99.90
21815;DHT22;11069;48.988;8.450;2023-04-06T04:40:46;-1.40;99.90
21815;DHT22;11069;48.988;8.450;2023-04-06T04:43:11;-1.40;99.90
21815;DHT22;11069;48.988;8.450;2023-04-06T04:45:37;-1.50;99.90
21815;DHT22;11069;48.988;8.450;2023-04-06T04:48:03;-1.40;99.90
21815;DHT22;11069;48.988;8.450;2023-04-06T04:50:30;-1.40;99.90
21815;DHT22;11069;48.988;8.450;2023-04-06T04:52:56;-1.30;99.90
21815;DHT22;11069;48.988;8.450;2023-04-06T04:55:21;-1.30;99.90
21815;DHT22;11069;48.988;8.450;2023-04-06T04:57:50;-1.20;99.90
21815;DHT22;11069;48.988;8.450;2023-04-06T05:00:15;-1.10;99.90
21815;DHT22;11069;48.988;8.450;2023-04-06T05:02:41;-1.20;99.90
21815;DHT22;11069;48.988;8.450;2023-04-06T05:05:07;-1.20;99.90
21815;DHT22;11069;48.988;8.450;2023-04-06T05:07:33;-1.20;99.90
21815;DHT22;11069;48.988;8.450;2023-04-06T05:09:59;-1.20;99.90
21815;DHT22;11069;48.988;8.450;2023-04-06T05:12:25;-1.10;99.90
21815;DHT22;11069;48.988;8.450;2023-04-06T05:14:53;-1.20;99.90
21815;DHT22;11069;48.988;8.450;2023-04-06T05:17:19;-1.20;99.90
21815;DHT22;11069;48.988;8.450;2023-04-06T05:19:44;-1.20;99.90
21815;DHT22;11069;48.988;8.450;2023-04-06T05:22:10;-1.10;99.90
21815;DHT22;11069;48.988;8.450;2023-04-06T05:24:36;-1.10;99.90
21815;DHT22;11069;48.988;8.450;2023-04-06T05:27:02;-1.00;99.90
21815;DHT22;11069;48.988;8.450;2023-04-06T05:29:28;-0.90;99.90
21815;DHT22;11069;48.988;8.450;2023-04-06T05:31:54;-0.90;99.90
21815;DHT22;11069;48.988;8.450;2023-04-06T05:34:20;-0.80;99.90
21815;DHT22;11069;48.988;8.450;2023-04-06T05:36:45;-0.70;99.90
21815;DHT22;11069;48.988;8.450;2023-04-06T05:39:13;-0.70;99.90
21815;DHT22;11069;48.988;8.450;2023-04-06T05:41:38;-0.70;99.90
21815;DHT22;11069;48.988;8.450;2023-04-06T05:44:04;-0.60;99.90
21815;DHT22;11069;48.988;8.450;2023-04-06T05:46:30;-0.40;99.90
21815;DHT22;11069;48.988;8.450;2023-04-06T05:48:55;-0.40;99.90
21815;DHT22;11069;48.988;8.450;2023-04-06T05:51:21;-0.30;99.90
21815;DHT22;11069;48.988;8.450;2023-04-06T05:53:47;-0.20;99.90
21815;DHT22;11069;48.988;8.450;2023-04-06T05:56:12;-0.10;99.90
21815;DHT22;11069;48.988;8.450;2023-04-06T05:58:38;0.00;99.90
21815;DHT22;11069;48.988;8.450;2023-04-06T06:01:04;0.10;99.90
21815;DHT22;11069;48.988;8.450;2023-04-06T06:03:30;0.20;99.90
21815;DHT22;11069;48.988;8.450;2023-04-06T06:06:03;0.30;99.90
21815;DHT22;11069;48.988;8.450;2023-04-06T06:08:29;0.50;99.90
21815;DHT22;11069;48.988;8.450;2023-04-06T06:10:55;0.60;99.90
21815;DHT22;11069;48.988;8.450;2023-04-06T06:13:22;0.90;99.90
21815;DHT22;11069;48.988;8.450;2023-04-06T06:15:48;1.00;99.90
21815;DHT22;11069;48.988;8.450;2023-04-06T06:18:14;1.20;99.90
21815;DHT22;11069;48.988;8.450;2023-04-06T06:20:40;1.60;99.90
21815;DHT22;11069;48.988;8.450;2023-04-06T06:23:05;2.30;99.90
21815;DHT22;11069;48.988;8.450;2023-04-06T06:25:32;2.50;99.90
21815;DHT22;11069;48.988;8.450;2023-04-06T06:27:58;2.80;99.90
21815;DHT22;11069;48.988;8.450;2023-04-06T06:30:24;2.90;99.90
21815;DHT22;11069;48.988;8.450;2023-04-06T06:32:50;3.20;99.90
21815;DHT22;11069;48.988;8.450;2023-04-06T06:35:16;4.10;99.90
21815;DHT22;11069;48.988;8.450;2023-04-06T06:37:42;5.30;99.90
21815;DHT22;11069;48.988;8.450;2023-04-06T06:40:09;6.40;99.90
21815;DHT22;11069;48.988;8.450;2023-04-06T06:42:35;7.50;99.90
21815;DHT22;11069;48.988;8.450;2023-04-06T06:45:01;8.50;99.90
21815;DHT22;11069;48.988;8.450;2023-04-06T06:47:27;9.50;98.30
21815;DHT22;11069;48.988;8.450;2023-04-06T06:49:52;10.50;95.60
21815;DHT22;11069;48.988;8.450;2023-04-06T06:52:18;11.10;93.00
21815;DHT22;11069;48.988;8.450;2023-04-06T06:54:44;11.90;91.60
21815;DHT22;11069;48.988;8.450;2023-04-06T06:57:10;12.30;87.30
21815;DHT22;11069;48.988;8.450;2023-04-06T06:59:35;12.20;84.30
21815;DHT22;11069;48.988;8.450;2023-04-06T07:02:01;12.20;83.00
21815;DHT22;11069;48.988;8.450;2023-04-06T07:04:27;11.80;84.20
21815;DHT22;11069;48.988;8.450;2023-04-06T07:06:52;12.20;84.00
21815;DHT22;11069;48.988;8.450;2023-04-06T07:09:18;12.50;83.00
21815;DHT22;11069;48.988;8.450;2023-04-06T07:11:44;12.60;81.00
21815;DHT22;11069;48.988;8.450;2023-04-06T07:14:10;12.00;82.50
21815;DHT22;11069;48.988;8.450;2023-04-06T07:16:37;11.60;82.80
21815;DHT22;11069;48.988;8.450;2023-04-06T07:19:03;12.20;83.30
21815;DHT22;11069;48.988;8.450;2023-04-06T07:21:28;12.90;81.70
21815;DHT22;11069;48.988;8.450;2023-04-06T07:23:54;11.40;82.10
21815;DHT22;11069;48.988;8.450;2023-04-06T07:26:20;12.00;83.90
21815;DHT22;11069;48.988;8.450;2023-04-06T07:28:46;13.00;81.60
21815;DHT22;11069;48.988;8.450;2023-04-06T07:31:11;13.50;78.90
21815;DHT22;11069;48.988;8.450;2023-04-06T07:33:37;13.50;79.30
21815;DHT22;11069;48.988;8.450;2023-04-06T07:36:03;14.20;77.00
21815;DHT22;11069;48.988;8.450;2023-04-06T07:38:29;13.60;78.70
21815;DHT22;11069;48.988;8.450;2023-04-06T07:40:54;13.80;76.70
21815;DHT22;11069;48.988;8.450;2023-04-06T07:43:20;13.90;75.90
21815;DHT22;11069;48.988;8.450;2023-04-06T07:45:45;13.90;74.20
21815;DHT22;11069;48.988;8.450;2023-04-06T07:48:11;14.20;74.50
21815;DHT22;11069;48.988;8.450;2023-04-06T07:50:37;14.40;73.20
21815;DHT22;11069;48.988;8.450;2023-04-06T07:53:02;15.20;71.20
21815;DHT22;11069;48.988;8.450;2023-04-06T07:55:28;15.80;70.60
21815;DHT22;11069;48.988;8.450;2023-04-06T07:57:54;16.70;68.80
21815;DHT22;11069;48.988;8.450;2023-04-06T08:00:20;16.90;68.80
21815;DHT22;11069;48.988;8.450;2023-04-06T08:02:45;16.90;67.20
21815;DHT22;11069;48.988;8.450;2023-04-06T08:05:11;16.60;68.40
21815;DHT22;11069;48.988;8.450;2023-04-06T08:07:37;16.70;65.90
21815;DHT22;11069;48.988;8.450;2023-04-06T08:10:03;16.30;67.80
21815;DHT22;11069;48.988;8.450;2023-04-06T08:12:29;14.70;71.10
21815;DHT22;11069;48.988;8.450;2023-04-06T08:14:55;14.50;73.50
21815;DHT22;11069;48.988;8.450;2023-04-06T08:17:22;14.00;74.50
21815;DHT22;11069;48.988;8.450;2023-04-06T08:19:47;14.40;73.50
21815;DHT22;11069;48.988;8.450;2023-04-06T08:22:13;14.30;71.80
21815;DHT22;11069;48.988;8.450;2023-04-06T08:24:39;12.60;76.80
21815;DHT22;11069;48.988;8.450;2023-04-06T08:27:05;12.80;77.00
21815;DHT22;11069;48.988;8.450;2023-04-06T08:29:30;13.00;78.20
21815;DHT22;11069;48.988;8.450;2023-04-06T08:31:56;13.20;77.30
21815;DHT22;11069;48.988;8.450;2023-04-06T08:34:22;12.70;77.30
21815;DHT22;11069;48.988;8.450;2023-04-06T08:36:48;12.80;77.90
21815;DHT22;11069;48.988;8.450;2023-04-06T08:39:14;13.00;78.10
21815;DHT22;11069;48.988;8.450;2023-04-06T08:41:41;12.70;77.10
21815;DHT22;11069;48.988;8.450;2023-04-06T08:44:08;12.40;78.60
21815;DHT22;11069;48.988;8.450;2023-04-06T08:46:34;12.40;78.70
21815;DHT22;11069;48.988;8.450;2023-04-06T08:49:01;11.70;79.40
21815;DHT22;11069;48.988;8.450;2023-04-06T08:51:29;11.70;80.10
21815;DHT22;11069;48.988;8.450;2023-04-06T08:53:57;12.50;80.40
21815;DHT22;11069;48.988;8.450;2023-04-06T08:56:24;12.60;79.20
21815;DHT22;11069;48.988;8.450;2023-04-06T08:58:52;12.90;75.50
21815;DHT22;11069;48.988;8.450;2023-04-06T09:01:21;12.80;79.30
21815;DHT22;11069;48.988;8.450;2023-04-06T09:03:49;13.30;76.40
21815;DHT22;11069;48.988;8.450;2023-04-06T09:06:15;13.50;74.80
21815;DHT22;11069;48.988;8.450;2023-04-06T09:08:41;13.00;77.00
21815;DHT22;11069;48.988;8.450;2023-04-06T09:11:07;13.30;76.00
21815;DHT22;11069;48.988;8.450;2023-04-06T09:13:50;12.80;74.30
21815;DHT22;11069;48.988;8.450;2023-04-06T09:16:16;12.80;74.50
21815;DHT22;11069;48.988;8.450;2023-04-06T09:18:42;13.30;75.20
21815;DHT22;11069;48.988;8.450;2023-04-06T09:21:08;13.50;73.50
21815;DHT22;11069;48.988;8.450;2023-04-06T09:23:34;14.10;73.10
21815;DHT22;11069;48.988;8.450;2023-04-06T09:26:09;14.30;71.50
21815;DHT22;11069;48.988;8.450;2023-04-06T09:28:49;14.50;72.50
21815;DHT22;11069;48.988;8.450;2023-04-06T09:31:17;14.70;71.00
21815;DHT22;11069;48.988;8.450;2023-04-06T09:33:46;14.50;73.10
21815;DHT22;11069;48.988;8.450;2023-04-06T09:36:12;14.10;73.60
21815;DHT22;11069;48.988;8.450;2023-04-06T09:39:01;13.80;76.10
21815;DHT22;11069;48.988;8.450;2023-04-06T09:46:34;15.90;70.50
21815;DHT22;11069;48.988;8.450;2023-04-06T09:49:04;15.60;70.90
21815;DHT22;11069;48.988;8.450;2023-04-06T09:51:34;15.80;71.40
21815;DHT22;11069;48.988;8.450;2023-04-06T09:54:02;16.20;68.60
21815;DHT22;11069;48.988;8.450;2023-04-06T09:56:45;16.20;68.60
21815;DHT22;11069;48.988;8.450;2023-04-06T09:59:20;17.10;67.00
21815;DHT22;11069;48.988;8.450;2023-04-06T10:01:48;16.80;67.20
21815;DHT22;11069;48.988;8.450;2023-04-06T10:04:49;16.30;65.90
21815;DHT22;11069;48.988;8.450;2023-04-06T10:07:18;16.30;68.40
21815;DHT22;11069;48.988;8.450;2023-04-06T10:09:45;16.20;68.90
21815;DHT22;11069;48.988;8.450;2023-04-06T10:12:12;16.50;69.00
21815;DHT22;11069;48.988;8.450;2023-04-06T10:14:39;16.80;67.30
21815;DHT22;11069;48.988;8.450;2023-04-06T10:17:06;16.50;66.20
21815;DHT22;11069;48.988;8.450;2023-04-06T10:20:03;16.40;66.70
21815;DHT22;11069;48.988;8.450;2023-04-06T10:22:41;16.20;69.10
21815;DHT22;11069;48.988;8.450;2023-04-06T10:25:08;16.90;67.40
21815;DHT22;11069;48.988;8.450;2023-04-06T10:27:34;17.00;65.10
21815;DHT22;11069;48.988;8.450;2023-04-06T10:30:05;16.90;66.00
21815;DHT22;11069;48.988;8.450;2023-04-06T10:32:36;16.40;65.40
21815;DHT22;11069;48.988;8.450;2023-04-06T10:35:09;16.30;68.10
21815;DHT22;11069;48.988;8.450;2023-04-06T10:37:52;15.60;65.90
21815;DHT22;11069;48.988;8.450;2023-04-06T10:40:23;15.70;66.70
21815;DHT22;11069;48.988;8.450;2023-04-06T10:42:50;15.80;67.00
21815;DHT22;11069;48.988;8.450;2023-04-06T10:45:25;16.20;66.90
21815;DHT22;11069;48.988;8.450;2023-04-06T10:47:54;17.00;64.40
21815;DHT22;11069;48.988;8.450;2023-04-06T10:50:22;16.80;65.30
21815;DHT22;11069;48.988;8.450;2023-04-06T10:52:59;15.60;64.90
21815;DHT22;11069;48.988;8.450;2023-04-06T10:55:28;15.70;68.50
21815;DHT22;11069;48.988;8.450;2023-04-06T10:57:55;16.00;65.60
21815;DHT22;11069;48.988;8.450;2023-04-06T11:00:20;16.40;63.20
21815;DHT22;11069;48.988;8.450;2023-04-06T11:02:46;16.70;64.90
21815;DHT22;11069;48.988;8.450;2023-04-06T11:05:12;17.50;62.00
21815;DHT22;11069;48.988;8.450;2023-04-06T11:07:39;17.30;66.20
21815;DHT22;11069;48.988;8.450;2023-04-06T11:10:06;17.80;61.70
21815;DHT22;11069;48.988;8.450;2023-04-06T11:12:32;18.90;58.90
21815;DHT22;11069;48.988;8.450;2023-04-06T11:14:59;18.50;61.20
21815;DHT22;11069;48.988;8.450;2023-04-06T11:17:33;18.30;58.40
21815;DHT22;11069;48.988;8.450;2023-04-06T11:19:59;17.70;59.10
21815;DHT22;11069;48.988;8.450;2023-04-06T11:22:25;18.10;57.90
21815;DHT22;11069;48.988;8.450;2023-04-06T11:24:52;18.70;56.70
21815;DHT22;11069;48.988;8.450;2023-04-06T11:27:18;18.70;55.90
21815;DHT22;11069;48.988;8.450;2023-04-06T11:29:45;19.00;57.70
21815;DHT22;11069;48.988;8.450;2023-04-06T11:32:20;19.40;61.80
21815;DHT22;11069;48.988;8.450;2023-04-06T11:34:47;19.10;58.70
21815;DHT22;11069;48.988;8.450;2023-04-06T11:37:13;18.80;57.40
21815;DHT22;11069;48.988;8.450;2023-04-06T11:39:43;19.70;56.90
21815;DHT22;11069;48.988;8.450;2023-04-06T11:42:08;19.80;55.90
21815;DHT22;11069;48.988;8.450;2023-04-06T11:44:39;19.10;54.50
21815;DHT22;11069;48.988;8.450;2023-04-06T11:47:06;18.90;55.80
21815;DHT22;11069;48.988;8.450;2023-04-06T11:49:36;18.00;55.70
21815;DHT22;11069;48.988;8.450;2023-04-06T11:52:02;17.40;56.30
21815;DHT22;11069;48.988;8.450;2023-04-06T11:54:36;17.70;56.70
21815;DHT22;11069;48.988;8.450;2023-04-06T11:57:03;18.20;56.20
21815;DHT22;11069;48.988;8.450;2023-04-06T11:59:30;17.20;55.20
21815;DHT22;11069;48.988;8.450;2023-04-06T12:01:57;17.50;57.60
21815;DHT22;11069;48.988;8.450;2023-04-06T12:04:23;17.90;60.00
21815;DHT22;11069;48.988;8.450;2023-04-06T12:06:49;18.60;55.30
21815;DHT22;11069;48.988;8.450;2023-04-06T12:09:16;18.20;53.80
21815;DHT22;11069;48.988;8.450;2023-04-06T12:11:45;17.70;54.10
21815;DHT22;11069;48.988;8.450;2023-04-06T12:14:12;17.70;54.60
21815;DHT22;11069;48.988;8.450;2023-04-06T12:16:38;18.10;54.40
21815;DHT22;11069;48.988;8.450;2023-04-06T12:19:04;17.90;54.30
21815;DHT22;11069;48.988;8.450;2023-04-06T12:21:33;17.50;56.40
21815;DHT22;11069;48.988;8.450;2023-04-06T12:24:01;16.30;59.00
21815;DHT22;11069;48.988;8.450;2023-04-06T12:26:27;15.90;58.20
21815;DHT22;11069;48.988;8.450;2023-04-06T12:28:53;15.60;58.00
21815;DHT22;11069;48.988;8.450;2023-04-06T12:31:20;16.30;57.90
21815;DHT22;11069;48.988;8.450;2023-04-06T12:33:48;17.00;56.50
21815;DHT22;11069;48.988;8.450;2023-04-06T12:36:18;17.80;57.90
21815;DHT22;11069;48.988;8.450;2023-04-06T12:38:48;18.60;54.40
21815;DHT22;11069;48.988;8.450;2023-04-06T12:41:14;18.60;55.70
21815;DHT22;11069;48.988;8.450;2023-04-06T12:43:44;17.70;53.60
21815;DHT22;11069;48.988;8.450;2023-04-06T12:46:10;18.20;56.80
21815;DHT22;11069;48.988;8.450;2023-04-06T12:48:36;17.90;55.60
21815;DHT22;11069;48.988;8.450;2023-04-06T12:51:03;17.30;55.90
21815;DHT22;11069;48.988;8.450;2023-04-06T12:53:29;17.80;53.80
21815;DHT22;11069;48.988;8.450;2023-04-06T12:55:56;18.40;53.70
21815;DHT22;11069;48.988;8.450;2023-04-06T12:58:22;18.90;52.80
21815;DHT22;11069;48.988;8.450;2023-04-06T13:00:49;18.60;54.40
21815;DHT22;11069;48.988;8.450;2023-04-06T13:03:19;18.10;55.50
21815;DHT22;11069;48.988;8.450;2023-04-06T13:05:46;18.40;54.50
21815;DHT22;11069;48.988;8.450;2023-04-06T13:08:12;19.20;53.80
21815;DHT22;11069;48.988;8.450;2023-04-06T13:10:38;18.40;56.00
21815;DHT22;11069;48.988;8.450;2023-04-06T13:13:11;17.60;56.50
21815;DHT22;11069;48.988;8.450;2023-04-06T13:15:36;17.10;55.80
21815;DHT22;11069;48.988;8.450;2023-04-06T13:18:03;17.00;56.80
21815;DHT22;11069;48.988;8.450;2023-04-06T13:20:28;17.00;55.10
21815;DHT22;11069;48.988;8.450;2023-04-06T13:22:54;17.20;56.10
21815;DHT22;11069;48.988;8.450;2023-04-06T13:25:20;17.30;55.90
21815;DHT22;11069;48.988;8.450;2023-04-06T13:27:45;17.90;54.10
21815;DHT22;11069;48.988;8.450;2023-04-06T13:30:13;18.00;52.00
21815;DHT22;11069;48.988;8.450;2023-04-06T13:32:39;18.00;53.10
21815;DHT22;11069;48.988;8.450;2023-04-06T13:35:05;18.00;53.80
21815;DHT22;11069;48.988;8.450;2023-04-06T13:37:32;18.10;51.70
21815;DHT22;11069;48.988;8.450;2023-04-06T13:39:57;18.20;53.50
21815;DHT22;11069;48.988;8.450;2023-04-06T13:42:23;18.10;51.70
21815;DHT22;11069;48.988;8.450;2023-04-06T13:44:48;17.40;47.30
21815;DHT22;11069;48.988;8.450;2023-04-06T13:47:16;17.50;49.10
21815;DHT22;11069;48.988;8.450;2023-04-06T13:49:42;17.60;49.80
21815;DHT22;11069;48.988;8.450;2023-04-06T13:52:07;17.50;47.00
21815;DHT22;11069;48.988;8.450;2023-04-06T13:54:35;17.40;48.00
21815;DHT22;11069;48.988;8.450;2023-04-06T13:57:00;17.00;50.30
21815;DHT22;11069;48.988;8.450;2023-04-06T13:59:32;17.10;50.90
21815;DHT22;11069;48.988;8.450;2023-04-06T14:01:58;17.50;49.60
21815;DHT22;11069;48.988;8.450;2023-04-06T14:04:24;17.40;50.00
21815;DHT22;11069;48.988;8.450;2023-04-06T14:06:49;17.70;48.10
21815;DHT22;11069;48.988;8.450;2023-04-06T14:09:15;18.10;47.80
21815;DHT22;11069;48.988;8.450;2023-04-06T14:11:40;18.40;46.30
21815;DHT22;11069;48.988;8.450;2023-04-06T14:14:06;18.20;49.40
21815;DHT22;11069;48.988;8.450;2023-04-06T14:16:32;17.70;51.60
21815;DHT22;11069;48.988;8.450;2023-04-06T14:18:57;18.00;49.30
21815;DHT22;11069;48.988;8.450;2023-04-06T14:21:24;17.70;48.60
21815;DHT22;11069;48.988;8.450;2023-04-06T14:23:49;18.10;50.40
21815;DHT22;11069;48.988;8.450;2023-04-06T14:26:15;18.20;48.90
21815;DHT22;11069;48.988;8.450;2023-04-06T14:28:41;18.50;47.80
21815;DHT22;11069;48.988;8.450;2023-04-06T14:31:11;17.60;48.20
21815;DHT22;11069;48.988;8.450;2023-04-06T14:33:38;17.60;50.80
21815;DHT22;11069;48.988;8.450;2023-04-06T14:36:05;18.10;50.30
21815;DHT22;11069;48.988;8.450;2023-04-06T14:38:34;18.00;51.50
21815;DHT22;11069;48.988;8.450;2023-04-06T14:41:00;17.50;51.60
21815;DHT22;11069;48.988;8.450;2023-04-06T14:43:26;17.40;54.60
21815;DHT22;11069;48.988;8.450;2023-04-06T14:45:52;17.20;52.50
21815;DHT22;11069;48.988;8.450;2023-04-06T14:48:18;16.60;52.20
21815;DHT22;11069;48.988;8.450;2023-04-06T14:50:57;16.30;55.80
21815;DHT22;11069;48.988;8.450;2023-04-06T14:53:23;15.90;54.50
21815;DHT22;11069;48.988;8.450;2023-04-06T14:55:49;15.70;55.80
21815;DHT22;11069;48.988;8.450;2023-04-06T14:58:17;15.90;56.50
21815;DHT22;11069;48.988;8.450;2023-04-06T15:00:42;15.90;56.10
21815;DHT22;11069;48.988;8.450;2023-04-06T15:03:08;15.80;58.00
21815;DHT22;11069;48.988;8.450;2023-04-06T15:05:34;15.80;56.10
21815;DHT22;11069;48.988;8.450;2023-04-06T15:08:00;16.20;55.60
21815;DHT22;11069;48.988;8.450;2023-04-06T15:10:26;16.10;54.80
21815;DHT22;11069;48.988;8.450;2023-04-06T15:12:51;16.30;56.30
21815;DHT22;11069;48.988;8.450;2023-04-06T15:15:17;16.10;57.00
21815;DHT22;11069;48.988;8.450;2023-04-06T15:17:43;15.80;57.30
21815;DHT22;11069;48.988;8.450;2023-04-06T15:20:09;15.60;55.80
21815;DHT22;11069;48.988;8.450;2023-04-06T15:22:35;15.50;56.20
21815;DHT22;11069;48.988;8.450;2023-04-06T15:25:00;15.50;58.20
21815;DHT22;11069;48.988;8.450;2023-04-06T15:27:26;15.20;58.10
21815;DHT22;11069;48.988;8.450;2023-04-06T15:29:51;14.90;59.40
21815;DHT22;11069;48.988;8.450;2023-04-06T15:32:17;14.90;64.80
21815;DHT22;11069;48.988;8.450;2023-04-06T15:34:42;15.00;60.20